Time;durP1;ratioP1;P1;durP2;ratioP2;P2;SDS_P1;SDS_P2;PMS_P1;PMS_P2;Temp;Humidity;BMP_temperature;BMP_pressure;BME280_temperature;BME280_humidity;BME280_pressure;Samples;Min_cycle;Max_cycle;Signal;HPM_P1;HPM_P2
2022/07/02 00:01:18;;;;;;;2.93;1.93;;;;;;;15.62;100.00;99683.94;5027988;28;20197;-77
2022/07/02 00:03:52;;;;;;;2.07;1.73;;;;;;;15.54;100.00;99688.13;5028090;28;20206;-77
2022/07/02 00:06:21;;;;;;;2.03;1.80;;;;;;;15.37;100.00;99687.59;5029550;27;20270;-77
2022/07/02 00:08:52;;;;;;;3.00;2.10;;;;;;;15.45;100.00;99690.53;5026484;28;20276;-78
2022/07/02 00:11:21;;;;;;;2.50;2.00;;;;;;;15.39;100.00;99682.97;5041180;28;20198;-78
2022/07/02 00:13:50;;;;;;;2.53;1.90;;;;;;;15.45;100.00;99692.34;5032828;28;20277;-78
2022/07/02 00:16:19;;;;;;;2.20;1.87;;;;;;;15.42;100.00;99690.75;5032441;28;20209;-78
2022/07/02 00:18:47;;;;;;;2.50;2.00;;;;;;;15.07;100.00;99690.75;5038677;27;20274;-78
2022/07/02 00:21:15;;;;;;;4.00;1.80;;;;;;;15.02;100.00;99692.88;5032360;28;20198;-78
2022/07/02 00:23:44;;;;;;;2.97;1.60;;;;;;;14.93;100.00;99693.56;5046956;27;20301;-78
2022/07/02 00:26:18;;;;;;;2.37;1.80;;;;;;;14.87;100.00;99688.69;5040430;28;20198;-78
2022/07/02 00:28:52;;;;;;;2.17;1.90;;;;;;;14.86;100.00;99695.84;5032173;28;20315;-78
2022/07/02 00:31:21;;;;;;;4.00;2.50;;;;;;;14.89;100.00;99695.59;5032052;28;20274;-78
2022/07/02 00:33:51;;;;;;;2.40;1.60;;;;;;;14.99;100.00;99697.59;5041330;28;20190;-78
2022/07/02 00:36:23;;;;;;;3.17;2.20;;;;;;;14.99;100.00;99698.44;5041605;28;20201;-78
2022/07/02 00:38:52;;;;;;;2.23;1.80;;;;;;;14.82;100.00;99689.00;5031842;28;20208;-78
2022/07/02 00:41:23;;;;;;;2.37;1.80;;;;;;;14.86;100.00;99693.16;5029531;28;20224;-78
2022/07/02 00:43:52;;;;;;;3.63;1.87;;;;;;;14.93;100.00;99688.22;5045476;27;20217;-78
2022/07/02 00:46:22;;;;;;;2.47;2.00;;;;;;;14.74;100.00;99687.84;5031774;28;20209;-77
2022/07/02 00:48:50;;;;;;;3.10;2.10;;;;;;;14.58;100.00;99690.81;5031992;28;20230;-78
2022/07/02 00:51:18;;;;;;;3.53;2.20;;;;;;;14.46;100.00;99697.84;5045651;27;20198;-78
2022/07/02 00:53:49;;;;;;;2.10;1.90;;;;;;;14.55;100.00;99696.34;5031989;28;20242;-79
2022/07/02 00:56:17;;;;;;;3.47;1.97;;;;;;;14.70;100.00;99692.56;5028754;28;20198;-78
2022/07/02 00:58:48;;;;;;;4.07;2.07;;;;;;;14.64;100.00;99687.66;5030501;28;20228;-78
2022/07/02 01:01:16;;;;;;;2.63;2.10;;;;;;;14.61;100.00;99693.22;5034917;28;20189;-78
2022/07/02 01:03:48;;;;;;;2.70;2.20;;;;;;;14.59;100.00;99689.84;5031819;28;20231;-78
2022/07/02 01:06:18;;;;;;;3.60;2.63;;;;;;;14.43;100.00;99686.53;5030551;28;20658;-78
2022/07/02 01:11:33;;;;;;;2.40;2.20;;;;;;;14.40;100.00;99687.59;5032454;27;20232;-78
2022/07/02 01:14:04;;;;;;;3.17;2.07;;;;;;;14.38;100.00;99694.84;5031379;28;20230;-78
2022/07/02 01:16:32;;;;;;;3.13;2.50;;;;;;;14.44;100.00;99688.22;5031590;28;20217;-78
2022/07/02 01:19:00;;;;;;;3.07;2.70;;;;;;;14.43;100.00;99697.19;5031511;28;20209;-78
2022/07/02 01:21:29;;;;;;;3.40;2.20;;;;;;;14.42;100.00;99687.50;5044628;27;20240;-78
2022/07/02 01:23:58;;;;;;;3.00;2.20;;;;;;;14.49;100.00;99694.13;5030006;28;20657;-78
2022/07/02 01:26:26;;;;;;;2.57;2.13;;;;;;;14.61;100.00;99693.22;5047002;27;20212;-78
2022/07/02 01:28:58;;;;;;;3.57;2.10;;;;;;;14.36;100.00;99688.75;5040040;28;20205;-78
2022/07/02 01:31:26;;;;;;;6.03;2.00;;;;;;;14.31;100.00;99689.09;5029107;28;20198;-78
2022/07/02 01:33:54;;;;;;;2.70;2.00;;;;;;;13.96;100.00;99694.22;5041176;27;20201;-78
2022/07/02 01:36:23;;;;;;;2.67;2.00;;;;;;;13.95;100.00;99694.34;5028519;28;20202;-79
2022/07/02 01:38:51;;;;;;;3.00;2.23;;;;;;;13.99;100.00;99695.81;5025115;28;20212;-78
2022/07/02 01:41:40;;;;;;;3.37;2.10;;;;;;;13.99;100.00;99695.81;5030961;28;20218;-78
2022/07/02 01:44:09;;;;;;;2.67;2.10;;;;;;;14.08;100.00;99703.16;5108349;28;20206;-78
2022/07/02 01:46:39;;;;;;;3.17;2.13;;;;;;;14.07;100.00;99701.47;5113560;28;20195;-78
2022/07/02 01:49:07;;;;;;;3.33;2.60;;;;;;;14.23;100.00;99701.25;5109031;28;20219;-78
2022/07/02 01:51:36;;;;;;;2.97;1.90;;;;;;;14.10;100.00;99703.94;5111295;28;20206;-78
2022/07/02 01:54:04;;;;;;;3.37;1.93;;;;;;;13.96;100.00;99704.88;5107908;28;20199;-78
2022/07/02 01:56:34;;;;;;;3.63;1.93;;;;;;;14.13;100.00;99701.06;5109626;28;20199;-78
2022/07/02 01:59:05;;;;;;;2.57;2.10;;;;;;;14.09;100.00;99699.56;5107031;28;20226;-78
2022/07/02 02:01:33;;;;;;;2.83;1.90;;;;;;;14.03;100.00;99707.97;5087920;28;20218;-78
2022/07/02 02:04:02;;;;;;;3.80;2.23;;;;;;;14.06;100.00;99710.41;5029681;28;20224;-78
2022/07/02 02:06:31;;;;;;;2.90;2.10;;;;;;;14.00;100.00;99703.72;5043460;27;20202;-78
2022/07/02 02:08:59;;;;;;;2.60;1.90;;;;;;;14.04;100.00;99705.22;5029666;28;20201;-78
2022/07/02 02:11:27;;;;;;;2.93;1.80;;;;;;;14.03;100.00;99705.31;5037232;28;20209;-78
2022/07/02 02:13:58;;;;;;;2.87;1.93;;;;;;;13.99;100.00;99701.16;5097306;28;20212;-78
2022/07/02 02:16:27;;;;;;;2.07;1.70;;;;;;;14.08;100.00;99692.50;5030777;28;20198;-78
2022/07/02 02:18:57;;;;;;;2.80;1.73;;;;;;;13.78;100.00;99692.84;5042385;27;20197;-78
2022/07/02 02:21:27;;;;;;;1.50;1.40;;;;;;;13.80;100.00;99698.94;5030571;28;20225;-78
2022/07/02 02:23:56;;;;;;;2.63;1.87;;;;;;;13.79;100.00;99694.53;5028054;28;20202;-78
2022/07/02 02:26:25;;;;;;;4.43;1.80;;;;;;;13.69;100.00;99691.66;5030272;28;20197;-78
2022/07/02 02:28:54;;;;;;;2.10;1.90;;;;;;;13.65;100.00;99697.31;5028631;28;20229;-77
2022/07/02 02:31:24;;;;;;;3.17;1.63;;;;;;;13.78;100.00;99703.47;5042095;27;20194;-77
2022/07/02 02:33:52;;;;;;;3.23;2.00;;;;;;;13.60;100.00;99696.75;5045874;27;20729;-77
2022/07/02 02:36:20;;;;;;;3.47;2.10;;;;;;;13.37;100.00;99699.16;5030486;28;20230;-77
2022/07/02 02:38:49;;;;;;;2.40;1.87;;;;;;;13.40;100.00;99700.75;5028562;28;20210;-77
2022/07/02 02:41:17;;;;;;;2.37;1.90;;;;;;;13.45;100.00;99702.16;5039403;28;20217;-77
2022/07/02 02:43:45;;;;;;;2.67;1.83;;;;;;;13.22;100.00;99705.50;5028785;28;20285;-77
2022/07/02 02:46:13;;;;;;;3.40;1.73;;;;;;;13.30;100.00;99700.50;5030319;28;20342;-77
2022/07/02 02:48:43;;;;;;;2.57;1.83;;;;;;;13.27;100.00;99703.38;5030133;28;20316;-77
2022/07/02 02:51:14;;;;;;;3.20;2.10;;;;;;;13.24;100.00;99710.72;5030062;28;20200;-77
2022/07/02 02:53:44;;;;;;;4.73;2.30;;;;;;;13.29;100.00;99711.25;5042790;27;20201;-77
2022/07/02 02:56:13;;;;;;;2.63;2.23;;;;;;;13.26;100.00;99717.66;5041664;27;20198;-77
2022/07/02 02:58:41;;;;;;;2.53;2.33;;;;;;;13.24;100.00;99708.91;5030236;28;20194;-77
2022/07/02 03:01:09;;;;;;;3.33;2.43;;;;;;;13.22;100.00;99710.84;5035881;27;20218;-77
2022/07/02 03:03:37;;;;;;;3.30;2.67;;;;;;;13.16;100.00;99713.84;5046119;27;20276;-77
2022/07/02 03:06:07;;;;;;;3.83;2.30;;;;;;;13.20;100.00;99719.84;5029700;28;20205;-77
2022/07/02 03:08:35;;;;;;;2.57;2.37;;;;;;;13.17;100.00;99715.56;5027257;28;20202;-78
2022/07/02 03:11:04;;;;;;;2.97;2.10;;;;;;;13.17;100.00;99716.41;5036753;28;20202;-78
2022/07/02 03:13:32;;;;;;;2.70;2.03;;;;;;;13.22;100.00;99725.91;5044071;27;20679;-78
2022/07/02 03:16:00;;;;;;;2.63;2.30;;;;;;;13.16;100.00;99724.50;5045354;27;20202;-77
2022/07/02 03:18:28;;;;;;;2.53;1.90;;;;;;;13.15;100.00;99717.47;5041030;28;20193;-77
2022/07/02 03:20:57;;;;;;;1.90;1.80;;;;;;;13.09;100.00;99718.72;5028541;28;20225;-77
2022/07/02 03:23:27;;;;;;;5.30;2.10;;;;;;;13.14;100.00;99718.44;5088780;28;20211;-77
2022/07/02 03:25:55;;;;;;;2.37;1.90;;;;;;;13.16;100.00;99725.34;5087021;28;20207;-78
2022/07/02 03:28:24;;;;;;;3.23;2.57;;;;;;;13.12;100.00;99728.28;5083822;28;20210;-78
2022/07/02 03:30:52;;;;;;;2.63;2.03;;;;;;;13.02;100.00;99728.03;5081156;28;20196;-79
2022/07/02 03:33:20;;;;;;;2.77;2.07;;;;;;;13.06;100.00;99721.59;5083543;28;20199;-78
2022/07/02 03:35:49;;;;;;;2.57;2.10;;;;;;;13.21;100.00;99727.72;5090468;28;20290;-77
2022/07/02 03:38:17;;;;;;;2.43;2.07;;;;;;;13.28;100.00;99728.19;5090695;28;20275;-78
2022/07/02 03:40:46;;;;;;;5.10;2.10;;;;;;;13.09;100.00;99734.66;5074103;28;20211;-80
2022/07/02 03:43:14;;;;;;;2.53;2.10;;;;;;;12.99;100.00;99733.56;5043429;27;20200;-80
2022/07/02 03:45:43;;;;;;;2.50;2.30;;;;;;;13.08;100.00;99732.97;5027195;28;20206;-80
2022/07/02 03:48:12;;;;;;;3.87;2.60;;;;;;;13.02;100.00;99740.47;5043068;28;20234;-79
2022/07/02 03:50:42;;;;;;;4.17;2.10;;;;;;;12.96;100.00;99747.06;5045578;27;20202;-79
2022/07/02 03:53:11;;;;;;;2.67;2.23;;;;;;;13.04;100.00;99754.56;5031779;28;20223;-79
2022/07/02 03:55:39;;;;;;;5.33;2.40;;;;;;;13.13;100.00;99751.31;5031894;28;20198;-79
2022/07/02 03:58:09;;;;;;;2.53;2.33;;;;;;;13.40;100.00;99754.81;5046505;27;20193;-79
2022/07/02 04:00:37;;;;;;;5.53;2.70;;;;;;;13.35;100.00;99753.44;5032932;28;20247;-79
2022/07/02 04:03:05;;;;;;;2.60;2.33;;;;;;;13.41;100.00;99756.56;5032510;28;20282;-78
2022/07/02 04:05:34;;;;;;;3.07;2.20;;;;;;;13.38;100.00;99756.72;5033124;28;20214;-79
2022/07/02 04:08:03;;;;;;;3.00;1.90;;;;;;;13.45;100.00;99757.19;5031526;28;20202;-79
2022/07/02 04:10:31;;;;;;;4.03;2.60;;;;;;;13.41;100.00;99761.00;5031308;28;20205;-79
2022/07/02 04:12:59;;;;;;;2.50;2.30;;;;;;;13.52;100.00;99761.16;5043596;27;20204;-79
2022/07/02 04:15:29;;;;;;;3.63;2.40;;;;;;;13.50;100.00;99759.53;5029721;28;20190;-79
2022/07/02 04:17:57;;;;;;;2.80;2.50;;;;;;;13.49;100.00;99747.19;5032730;28;20205;-79
2022/07/02 04:20:26;;;;;;;5.57;2.80;;;;;;;13.50;100.00;99755.06;5038876;27;20205;-79
2022/07/02 04:22:54;;;;;;;4.03;2.70;;;;;;;13.58;100.00;99757.22;5032342;28;20232;-80
2022/07/02 04:25:22;;;;;;;3.10;2.80;;;;;;;13.59;100.00;99762.44;5031566;28;20198;-80
2022/07/02 04:27:50;;;;;;;3.63;3.00;;;;;;;13.59;100.00;99767.75;5045188;27;20209;-79
2022/07/02 04:30:18;;;;;;;5.47;3.00;;;;;;;13.47;100.00;99765.91;5032481;28;20641;-79
2022/07/02 04:32:48;;;;;;;4.73;3.10;;;;;;;13.54;100.00;99772.56;5032101;28;20213;-79
2022/07/02 04:35:17;;;;;;;3.73;2.90;;;;;;;13.75;100.00;99770.25;5032409;28;20204;-79
2022/07/02 04:37:45;;;;;;;4.43;3.07;;;;;;;13.63;100.00;99776.41;5046915;27;20194;-79
2022/07/02 04:40:13;;;;;;;3.80;2.93;;;;;;;13.77;100.00;99776.34;5044924;27;20667;-79
2022/07/02 04:42:42;;;;;;;4.97;3.07;;;;;;;13.80;100.00;99773.47;5031709;28;20334;-79
2022/07/02 04:45:11;;;;;;;5.73;2.73;;;;;;;13.88;100.00;99770.28;5045349;27;20225;-79
2022/07/02 04:47:41;;;;;;;3.67;3.07;;;;;;;13.92;100.00;99769.13;5002099;28;20245;-79
2022/07/02 04:50:10;;;;;;;4.57;3.10;;;;;;;13.99;100.00;99768.63;5032150;28;20198;-79
2022/07/02 04:52:39;;;;;;;4.40;3.33;;;;;;;14.07;100.00;99767.22;5044177;27;20209;-79
2022/07/02 04:55:07;;;;;;;7.73;3.53;;;;;;;14.14;100.00;99773.84;5046498;27;20665;-79
2022/07/02 04:57:35;;;;;;;5.03;3.10;;;;;;;14.13;100.00;99773.00;5029295;28;20196;-79
2022/07/02 05:00:04;;;;;;;6.03;3.40;;;;;;;14.24;100.00;99765.09;5045106;27;20213;-79
2022/07/02 05:02:33;;;;;;;4.57;3.07;;;;;;;14.36;100.00;99768.72;5029208;28;20748;-79
2022/07/02 05:05:01;;;;;;;4.60;3.10;;;;;;;14.28;100.00;99758.63;5007251;28;20827;-79
2022/07/02 05:07:31;;;;;;;4.67;2.83;;;;;;;14.41;100.00;99763.94;5072885;28;20197;-79
2022/07/02 05:09:59;;;;;;;3.97;2.40;;;;;;;14.45;100.00;99762.78;5071487;28;20277;-79
2022/07/02 05:12:27;;;;;;;5.07;3.20;;;;;;;14.39;100.00;99763.19;5063378;28;20197;-79
2022/07/02 05:14:55;;;;;;;6.03;3.00;;;;;;;14.55;100.00;99769.16;5072518;28;20197;-79
2022/07/02 05:17:24;;;;;;;3.40;3.07;;;;;;;14.59;100.00;99764.50;5072767;28;20200;-78
2022/07/02 05:19:52;;;;;;;4.10;3.20;;;;;;;14.68;100.00;99768.31;5065306;28;20196;-78
2022/07/02 05:22:20;;;;;;;3.37;2.80;;;;;;;14.80;100.00;99760.28;5069501;28;20230;-79
2022/07/02 05:24:51;;;;;;;6.40;2.97;;;;;;;14.88;100.00;99765.06;5055420;28;20200;-79
2022/07/02 05:27:20;;;;;;;5.60;3.00;;;;;;;14.98;100.00;99773.25;5009737;28;20385;-79
2022/07/02 05:29:48;;;;;;;3.53;3.23;;;;;;;15.13;100.00;99772.97;5017780;28;20205;-79
2022/07/02 05:32:16;;;;;;;3.57;3.10;;;;;;;15.16;100.00;99786.13;5045175;27;20385;-79
2022/07/02 05:34:44;;;;;;;3.70;3.40;;;;;;;15.27;100.00;99785.34;5031315;28;20201;-79
2022/07/02 05:37:12;;;;;;;5.97;3.40;;;;;;;15.40;100.00;99787.94;5031473;28;20287;-79
2022/07/02 05:39:40;;;;;;;5.23;3.30;;;;;;;15.49;100.00;99787.25;5036605;27;20236;-79
2022/07/02 05:42:10;;;;;;;7.03;3.50;;;;;;;15.58;100.00;99791.94;5044153;27;20281;-79
2022/07/02 05:44:39;;;;;;;5.20;3.30;;;;;;;15.68;100.00;99792.97;5031347;28;20223;-79
2022/07/02 05:47:07;;;;;;;4.27;3.87;;;;;;;15.77;100.00;99778.06;5030056;28;20246;-79
2022/07/02 05:49:36;;;;;;;5.43;3.40;;;;;;;15.96;100.00;99782.88;5016972;28;20202;-79
2022/07/02 05:52:05;;;;;;;3.83;2.67;;;;;;;16.02;100.00;99777.94;5030955;28;20197;-79
2022/07/02 05:54:33;;;;;;;3.50;3.00;;;;;;;15.97;100.00;99781.91;5009195;28;20275;-79
2022/07/02 05:57:01;;;;;;;4.03;3.40;;;;;;;16.17;100.00;99791.06;5030818;28;20277;-79
2022/07/02 05:59:31;;;;;;;5.13;3.10;;;;;;;16.25;100.00;99794.00;5031186;28;20202;-79
2022/07/02 06:01:59;;;;;;;4.47;3.60;;;;;;;16.10;100.00;99789.81;5030700;28;20218;-80
2022/07/02 06:04:27;;;;;;;3.63;2.87;;;;;;;16.43;100.00;99795.25;5041915;27;20202;-79
2022/07/02 06:09:41;;;;;;;3.23;2.37;;;;;;;16.54;100.00;99784.56;5030202;27;20197;-79
2022/07/02 06:12:09;;;;;;;2.70;2.37;;;;;;;16.78;100.00;99781.78;5041634;27;20194;-79
2022/07/02 06:14:42;;;;;;;4.00;2.30;;;;;;;16.50;100.00;99782.22;5044243;27;20277;-78
2022/07/02 06:17:11;;;;;;;4.07;2.27;;;;;;;16.67;100.00;99786.25;5040265;27;20201;-79
2022/07/02 06:19:39;;;;;;;4.23;2.60;;;;;;;16.54;100.00;99781.03;5041549;27;20206;-78
2022/07/02 06:22:07;;;;;;;2.50;2.20;;;;;;;16.71;100.00;99780.59;5030623;28;20229;-79
2022/07/02 06:24:36;;;;;;;2.87;2.13;;;;;;;16.84;100.00;99781.31;5029634;28;20292;-79
2022/07/02 06:27:05;;;;;;;3.17;2.10;;;;;;;17.02;100.00;99783.50;5030563;28;20190;-79
2022/07/02 06:29:33;;;;;;;3.00;2.70;;;;;;;17.00;100.00;99777.41;5040331;27;20201;-79
2022/07/02 06:32:04;;;;;;;3.93;2.37;;;;;;;16.60;100.00;99780.56;5046074;27;20193;-79
2022/07/02 06:34:32;;;;;;;3.73;2.37;;;;;;;16.63;100.00;99783.00;5040378;28;20205;-78
2022/07/02 06:37:00;;;;;;;2.93;2.47;;;;;;;16.96;100.00;99773.25;5030580;28;20228;-79
2022/07/02 06:39:30;;;;;;;5.57;2.53;;;;;;;17.04;100.00;99778.84;5042791;27;20250;-79
2022/07/02 06:44:43;;;;;;;4.87;2.70;;;;;;;16.99;100.00;99779.25;5030436;28;20201;-79
2022/07/02 06:47:13;;;;;;;4.90;2.70;;;;;;;17.14;100.00;99777.97;5041009;27;20206;-79
2022/07/02 06:49:42;;;;;;;3.67;2.53;;;;;;;17.27;100.00;99783.19;5044714;27;20204;-79
2022/07/02 06:52:10;;;;;;;4.83;2.53;;;;;;;17.32;100.00;99775.63;5045595;27;20208;-79
2022/07/02 06:54:39;;;;;;;3.63;2.50;;;;;;;17.56;100.00;99778.09;5092583;28;20197;-79
2022/07/02 06:57:09;;;;;;;3.23;2.57;;;;;;;17.73;100.00;99774.91;5029955;28;20220;-79
2022/07/02 06:59:37;;;;;;;3.37;2.57;;;;;;;17.68;100.00;99777.09;5030311;28;20198;-79
2022/07/02 07:02:06;;;;;;;3.27;2.60;;;;;;;18.01;100.00;99778.78;5039185;27;20194;-79
2022/07/02 07:04:42;;;;;;;4.97;2.57;;;;;;;18.17;100.00;99777.50;5039220;27;20201;-78
2022/07/02 07:07:11;;;;;;;3.73;2.40;;;;;;;18.22;100.00;99778.78;5028843;28;20267;-79
2022/07/02 07:09:39;;;;;;;4.80;2.47;;;;;;;18.39;100.00;99784.53;5029224;28;20186;-79
2022/07/02 07:12:08;;;;;;;2.80;2.30;;;;;;;18.43;100.00;99776.09;5032898;28;20201;-79
2022/07/02 07:14:40;;;;;;;3.73;2.40;;;;;;;18.55;100.00;99782.22;5030178;28;20250;-79
2022/07/02 07:17:09;;;;;;;4.03;2.40;;;;;;;18.58;100.00;99787.31;5030049;28;20649;-79
2022/07/02 07:19:37;;;;;;;3.77;2.43;;;;;;;18.67;100.00;99778.50;5027669;28;20209;-79
2022/07/02 07:22:08;;;;;;;4.53;2.50;;;;;;;18.56;100.00;99778.56;5027019;28;20219;-79
2022/07/02 07:24:37;;;;;;;2.60;2.40;;;;;;;18.71;100.00;99771.88;5027636;28;20229;-80
2022/07/02 07:27:06;;;;;;;3.53;2.40;;;;;;;18.87;100.00;99769.53;5045071;27;20202;-79
2022/07/02 07:29:35;;;;;;;3.10;2.43;;;;;;;18.97;100.00;99766.88;5011599;28;20327;-79
2022/07/02 07:32:04;;;;;;;3.27;2.00;;;;;;;19.16;100.00;99776.84;5040829;28;20202;-79
2022/07/02 07:34:36;;;;;;;4.50;2.30;;;;;;;19.26;100.00;99769.66;5055001;27;20194;-79
2022/07/02 07:37:07;;;;;;;3.30;1.60;;;;;;;19.60;100.00;99772.00;5029538;28;20217;-79
2022/07/02 07:39:35;;;;;;;4.07;2.17;;;;;;;19.43;100.00;99760.06;5028120;28;20225;-79
2022/07/02 07:42:03;;;;;;;3.20;2.20;;;;;;;19.56;100.00;99757.13;5029257;28;20224;-79
2022/07/02 07:44:32;;;;;;;2.50;2.20;;;;;;;19.57;100.00;99762.34;5045075;27;20217;-79
2022/07/02 07:47:00;;;;;;;4.80;2.10;;;;;;;19.70;100.00;99768.31;5040197;28;20213;-79
2022/07/02 07:49:29;;;;;;;5.17;2.47;;;;;;;19.64;100.00;99755.44;5035828;28;20278;-79
2022/07/02 07:51:57;;;;;;;2.73;1.73;;;;;;;19.95;100.00;99758.81;5043222;27;20209;-79
2022/07/02 07:54:26;;;;;;;3.77;1.90;;;;;;;19.95;100.00;99761.50;4979476;28;20192;-79
2022/07/02 07:56:54;;;;;;;4.20;1.80;;;;;;;20.02;100.00;99764.47;4970264;28;20215;-79
2022/07/02 07:59:23;;;;;;;2.97;2.10;;;;;;;20.20;100.00;99749.28;4968372;28;20215;-79
2022/07/02 08:01:52;;;;;;;3.97;2.10;;;;;;;20.42;100.00;99750.78;4966058;28;20196;-79
2022/07/02 08:04:21;;;;;;;3.73;1.80;;;;;;;20.40;100.00;99751.94;4970758;28;20269;-80
2022/07/02 08:06:49;;;;;;;5.37;1.67;;;;;;;20.56;100.00;99752.22;4967707;28;20651;-79
2022/07/02 08:09:18;;;;;;;2.37;1.70;;;;;;;20.71;100.00;99755.25;4969917;28;20647;-79
2022/07/02 08:11:47;;;;;;;5.33;2.00;;;;;;;20.35;100.00;99752.34;4979236;28;20280;-79
2022/07/02 08:14:16;;;;;;;2.77;1.80;;;;;;;20.09;100.00;99756.69;5044905;27;20199;-79
2022/07/02 08:16:44;;;;;;;4.20;1.70;;;;;;;20.07;100.00;99747.88;5041875;28;20653;-79
2022/07/02 08:19:12;;;;;;;5.20;1.80;;;;;;;20.39;100.00;99750.25;5038282;28;20197;-79
2022/07/02 08:21:40;;;;;;;4.03;1.60;;;;;;;20.78;100.00;99749.13;5026151;28;20202;-79
2022/07/02 08:24:08;;;;;;;4.67;1.40;;;;;;;21.01;100.00;99741.47;5034020;28;20233;-79
2022/07/02 08:26:37;;;;;;;2.80;1.70;;;;;;;21.06;100.00;99736.50;5028069;28;20712;-79
2022/07/02 08:29:06;;;;;;;1.73;1.10;;;;;;;21.11;100.00;99736.88;5029124;28;20209;-79
2022/07/02 08:31:34;;;;;;;2.00;1.20;;;;;;;21.39;100.00;99739.56;5030453;28;20277;-79
2022/07/02 08:34:03;;;;;;;1.65;1.30;;;;;;;21.40;100.00;99738.56;5046178;27;20204;-79
2022/07/02 08:36:31;;;;;;;2.53;1.53;;;;;;;21.42;100.00;99731.16;5046027;27;20202;-79
2022/07/02 08:38:59;;;;;;;3.03;1.17;;;;;;;21.78;100.00;99729.31;5031311;28;20197;-79
2022/07/02 08:41:29;;;;;;;2.15;1.20;;;;;;;22.01;100.00;99732.38;5030740;28;20213;-79
2022/07/02 08:44:00;;;;;;;2.88;1.10;;;;;;;22.02;100.00;99725.13;5029462;28;20232;-79
2022/07/02 08:46:31;;;;;;;2.40;1.17;;;;;;;21.53;93.80;99724.72;5032280;28;20198;-79
2022/07/02 08:49:01;;;;;;;2.33;1.30;;;;;;;21.64;98.08;99716.41;5031644;28;20275;-79
2022/07/02 08:51:29;;;;;;;3.30;1.30;;;;;;;21.93;98.29;99718.84;5032251;28;20190;-79
2022/07/02 08:53:59;;;;;;;2.20;1.23;;;;;;;22.23;91.52;99728.34;5034266;28;20202;-79
2022/07/02 08:56:28;;;;;;;5.07;1.42;;;;;;;22.00;90.05;99722.56;5031729;28;20202;-79
2022/07/02 08:58:58;;;;;;;5.00;1.55;;;;;;;22.22;88.31;99714.00;5029462;28;20192;-79
2022/07/02 09:01:26;;;;;;;1.83;1.10;;;;;;;22.63;83.23;99714.22;5036706;28;20198;-80
2022/07/02 09:03:57;;;;;;;3.28;1.17;;;;;;;22.86;87.28;99717.22;5046187;27;20221;-79
2022/07/02 09:06:29;;;;;;;3.53;1.30;;;;;;;22.65;90.04;99717.59;5031533;28;20197;-79
2022/07/02 09:08:59;;;;;;;5.00;1.70;;;;;;;22.53;87.78;99719.75;5030355;28;20233;-79
2022/07/02 09:11:30;;;;;;;2.70;1.10;;;;;;;22.56;80.29;99719.41;5029115;28;20209;-79
2022/07/02 09:13:58;;;;;;;2.92;1.10;;;;;;;22.19;86.11;99717.00;5048136;27;20251;-79
2022/07/02 09:16:27;;;;;;;2.42;1.00;;;;;;;22.32;82.18;99723.84;5047080;27;20273;-79
2022/07/02 09:18:57;;;;;;;7.65;1.60;;;;;;;22.04;78.04;99718.56;5044210;27;20225;-79
2022/07/02 09:21:26;;;;;;;9.02;1.90;;;;;;;22.11;74.76;99718.81;5030324;28;20198;-79
2022/07/02 09:23:54;;;;;;;7.45;1.20;;;;;;;22.33;72.84;99706.66;5036479;27;20229;-79
2022/07/02 09:26:23;;;;;;;2.10;1.05;;;;;;;23.06;73.46;99704.25;5031460;28;20198;-80
2022/07/02 09:28:54;;;;;;;2.83;0.95;;;;;;;23.24;73.28;99713.09;5031220;28;20221;-80
2022/07/02 09:31:23;;;;;;;5.93;1.40;;;;;;;23.16;71.71;99702.25;5045503;27;20307;-79
2022/07/02 09:33:53;;;;;;;4.75;1.13;;;;;;;22.56;73.73;99705.06;5041837;27;20200;-78
2022/07/02 09:36:24;;;;;;;4.10;1.17;;;;;;;23.09;73.53;99701.25;5031471;28;20197;-79
2022/07/02 09:38:54;;;;;;;4.30;1.08;;;;;;;23.18;70.10;99700.25;5044471;27;20198;-79
2022/07/02 09:41:24;;;;;;;3.88;1.05;;;;;;;22.88;69.66;99692.75;5029970;28;20205;-79
2022/07/02 09:43:59;;;;;;;1.63;1.00;;;;;;;23.19;68.22;99691.16;5030347;28;20220;-79
2022/07/02 09:46:28;;;;;;;2.67;0.90;;;;;;;23.46;65.07;99692.72;5028429;28;20201;-79
2022/07/02 09:49:07;;;;;;;3.08;1.25;;;;;;;22.87;68.51;99685.63;5030873;28;20692;-78
2022/07/02 09:51:47;;;;;;;1.50;1.08;;;;;;;22.11;74.14;99684.59;5044205;27;20208;-79
2022/07/02 09:54:19;;;;;;;3.92;0.90;;;;;;;22.71;72.71;99689.13;5029875;28;20198;-78
2022/07/02 09:56:51;;;;;;;4.10;1.38;;;;;;;22.98;69.99;99690.75;5031094;28;20202;-78
2022/07/02 09:59:21;;;;;;;1.55;1.10;;;;;;;23.28;68.54;99683.91;5039834;27;20217;-79
2022/07/02 10:01:50;;;;;;;2.50;1.10;;;;;;;23.59;65.05;99694.94;5030937;28;20201;-78
2022/07/02 10:04:28;;;;;;;4.88;1.33;;;;;;;23.50;66.61;99683.22;5046270;27;20228;-80
2022/07/02 10:06:59;;;;;;;6.95;1.15;;;;;;;23.49;69.20;99684.25;5029432;28;20206;-79
2022/07/02 10:09:28;;;;;;;8.63;1.30;;;;;;;23.46;68.21;99689.16;5029631;28;20197;-79
2022/07/02 10:11:58;;;;;;;2.05;0.90;;;;;;;23.63;64.96;99677.34;5040571;27;20208;-79
2022/07/02 10:14:29;;;;;;;1.92;1.00;;;;;;;23.74;61.81;99681.56;5030351;28;20202;-79
2022/07/02 10:16:59;;;;;;;2.97;1.02;;;;;;;23.84;61.54;99672.28;5029640;28;20197;-79
2022/07/02 10:19:28;;;;;;;3.10;1.02;;;;;;;24.07;56.87;99668.84;5026566;28;20202;-79
2022/07/02 10:22:00;;;;;;;2.17;0.90;;;;;;;23.86;60.97;99664.84;5030508;28;20217;-79
2022/07/02 10:24:28;;;;;;;2.25;0.90;;;;;;;23.93;55.59;99662.25;5026853;28;20705;-79
2022/07/02 10:27:00;;;;;;;2.50;0.85;;;;;;;24.25;54.00;99654.09;5030049;28;20202;-79
2022/07/02 10:29:28;;;;;;;1.90;0.93;;;;;;;24.11;52.13;99652.09;5029684;28;20198;-79
2022/07/02 10:32:05;;;;;;;3.58;0.95;;;;;;;24.30;51.60;99642.72;5030199;28;20225;-79
2022/07/02 10:34:46;;;;;;;2.70;0.82;;;;;;;24.72;50.91;99645.13;5030606;28;20201;-79
2022/07/02 10:37:18;;;;;;;1.90;0.75;;;;;;;25.02;47.71;99646.19;5044723;27;20197;-79
2022/07/02 10:39:46;;;;;;;2.33;0.93;;;;;;;24.83;49.03;99650.16;5027826;28;20211;-79
2022/07/02 10:42:14;;;;;;;4.65;1.00;;;;;;;25.16;50.07;99647.25;5028902;28;20205;-79
2022/07/02 10:44:45;;;;;;;1.08;0.88;;;;;;;25.18;48.63;99634.34;5041546;27;20217;-79
2022/07/02 10:47:18;;;;;;;3.13;0.80;;;;;;;25.42;48.51;99627.06;5041370;27;20200;-79
2022/07/02 10:49:57;;;;;;;2.55;0.70;;;;;;;25.67;44.19;99626.69;5045113;27;20237;-79
2022/07/02 10:52:40;;;;;;;2.17;0.60;;;;;;;24.92;48.41;99625.72;5030281;28;20189;-80
2022/07/02 10:55:08;;;;;;;2.05;0.80;;;;;;;25.24;45.66;99617.38;5027809;28;20234;-79
2022/07/02 10:57:37;;;;;;;2.63;0.65;;;;;;;25.67;46.48;99618.56;5031601;28;20653;-80
2022/07/02 11:00:09;;;;;;;2.78;1.00;;;;;;;25.90;45.82;99623.94;5030220;28;20279;-79
2022/07/02 11:02:37;;;;;;;2.60;0.85;;;;;;;26.04;40.68;99626.84;5030147;28;20212;-80
2022/07/02 11:05:10;;;;;;;1.95;0.70;;;;;;;26.07;39.78;99623.78;5044099;27;20224;-79
2022/07/02 11:07:46;;;;;;;1.42;0.65;;;;;;;25.75;42.07;99624.94;5032827;28;20225;-79
2022/07/02 11:10:14;;;;;;;2.47;0.80;;;;;;;26.07;43.03;99611.03;5028567;28;20447;-79
2022/07/02 11:12:52;;;;;;;3.38;0.80;;;;;;;24.96;44.60;99614.31;5029820;28;20208;-79
2022/07/02 11:15:29;;;;;;;1.75;0.98;;;;;;;25.52;45.85;99608.69;5029725;28;20197;-78
2022/07/02 11:18:02;;;;;;;1.42;0.75;;;;;;;25.47;46.14;99609.22;5029540;28;20194;-78
2022/07/02 11:20:31;;;;;;;3.45;0.93;;;;;;;25.48;45.46;99601.91;5029772;28;20224;-78
2022/07/02 11:23:00;;;;;;;2.08;0.85;;;;;;;25.08;46.19;99610.19;5029908;28;20677;-78
2022/07/02 11:25:30;;;;;;;6.93;1.00;;;;;;;25.08;45.84;99601.22;5028438;28;20217;-79
2022/07/02 11:28:00;;;;;;;3.95;0.77;;;;;;;25.53;45.43;99604.94;5029775;28;20197;-78
2022/07/02 11:30:30;;;;;;;3.50;0.88;;;;;;;25.94;44.27;99597.25;5027494;28;20209;-78
2022/07/02 11:32:59;;;;;;;1.38;0.70;;;;;;;26.30;42.83;99602.78;5029829;28;20186;-79
2022/07/02 11:35:28;;;;;;;2.72;0.80;;;;;;;26.74;42.43;99591.88;5043204;27;20297;-79
2022/07/02 11:37:56;;;;;;;2.55;0.77;;;;;;;26.65;40.95;99594.91;5040118;28;20641;-79
2022/07/02 11:40:27;;;;;;;2.45;0.60;;;;;;;25.64;44.18;99582.78;5028768;28;20201;-79
2022/07/02 11:42:55;;;;;;;1.30;0.88;;;;;;;25.77;43.09;99595.72;5029655;28;20277;-78
2022/07/02 11:45:24;;;;;;;1.65;0.70;;;;;;;25.99;43.43;99588.56;5029540;28;20229;-79